sensor_id;sensor_type;location;lat;lon;timestamp;pressure;altitude;pressure_sealevel;temperature;humidity
61961;BME280;47923;42.506;24.192;2023-09-18T00:02:18;96091.22;;;18.01;81.82
61961;BME280;47923;42.506;24.192;2023-09-18T00:04:43;96092.00;;;18.02;81.91
61961;BME280;47923;42.506;24.192;2023-09-18T00:07:09;95622.97;;;14.96;80.33
61961;BME280;47923;42.506;24.192;2023-09-18T00:09:36;96043.97;;;17.79;81.50
61961;BME280;47923;42.506;24.192;2023-09-18T00:12:01;96024.44;;;17.49;81.78
61961;BME280;47923;42.506;24.192;2023-09-18T00:14:27;96001.00;;;17.44;81.04
61961;BME280;47923;42.506;24.192;2023-09-18T00:16:52;96084.97;;;18.04;80.79
61961;BME280;47923;42.506;24.192;2023-09-18T00:19:18;96083.81;;;17.87;81.12
61961;BME280;47923;42.506;24.192;2023-09-18T00:21:43;96083.78;;;18.05;80.34
61961;BME280;47923;42.506;24.192;2023-09-18T00:24:09;95840.56;;;16.45;80.93
61961;BME280;47923;42.506;24.192;2023-09-18T00:26:34;96082.25;;;18.01;80.90
61961;BME280;47923;42.506;24.192;2023-09-18T00:29:00;96087.72;;;18.01;81.52
61961;BME280;47923;42.506;24.192;2023-09-18T00:31:25;96081.47;;;18.00;80.74
61961;BME280;47923;42.506;24.192;2023-09-18T00:35:34;96083.41;;;18.03;79.83
61961;BME280;47923;42.506;24.192;2023-09-18T00:38:00;95925.28;;;17.02;79.35
61961;BME280;47923;42.506;24.192;2023-09-18T00:40:29;96077.97;;;18.07;79.03
61961;BME280;47923;42.506;24.192;2023-09-18T00:42:55;95929.19;;;17.15;79.09
61961;BME280;47923;42.506;24.192;2023-09-18T00:45:20;96009.59;;;17.64;78.00
61961;BME280;47923;42.506;24.192;2023-09-18T00:47:46;95913.56;;;16.94;79.64
61961;BME280;47923;42.506;24.192;2023-09-18T00:50:12;96086.16;;;18.07;79.42
61961;BME280;47923;42.506;24.192;2023-09-18T00:52:38;95968.63;;;17.28;79.02
61961;BME280;47923;42.506;24.192;2023-09-18T00:55:05;95849.56;;;16.45;79.70
61961;BME280;47923;42.506;24.192;2023-09-18T00:57:32;96055.69;;;17.83;78.94
61961;BME280;47923;42.506;24.192;2023-09-18T00:59:57;96077.56;;;18.01;78.47
61961;BME280;47923;42.506;24.192;2023-09-18T01:02:23;96089.28;;;18.02;79.72
61961;BME280;47923;42.506;24.192;2023-09-18T01:04:49;96079.09;;;17.99;79.32
61961;BME280;47923;42.506;24.192;2023-09-18T01:07:15;95927.63;;;17.00;78.59
61961;BME280;47923;42.506;24.192;2023-09-18T01:09:41;96084.22;;;18.00;79.69
61961;BME280;47923;42.506;24.192;2023-09-18T01:12:17;96081.47;;;17.97;80.36
61961;BME280;47923;42.506;24.192;2023-09-18T01:17:19;95978.34;;;17.04;80.59
61961;BME280;47923;42.506;24.192;2023-09-18T01:19:46;96042.72;;;17.20;80.71
61961;BME280;47923;42.506;24.192;2023-09-18T01:22:14;96074.78;;;17.65;80.94
61961;BME280;47923;42.506;24.192;2023-09-18T01:24:41;96078.66;;;17.61;80.79
61961;BME280;47923;42.506;24.192;2023-09-18T01:27:11;95967.34;;;16.79;81.03
61961;BME280;47923;42.506;24.192;2023-09-18T01:29:38;96082.50;;;17.24;81.31
61961;BME280;47923;42.506;24.192;2023-09-18T01:32:04;96014.97;;;17.03;81.43
61961;BME280;47923;42.506;24.192;2023-09-18T01:34:34;96062.63;;;17.27;81.62
61961;BME280;47923;42.506;24.192;2023-09-18T01:37:05;95961.88;;;16.76;81.04
61961;BME280;47923;42.506;24.192;2023-09-18T01:39:33;96066.94;;;17.46;81.20
61961;BME280;47923;42.506;24.192;2023-09-18T01:42:01;96071.63;;;17.49;81.06
61961;BME280;47923;42.506;24.192;2023-09-18T01:44:27;96010.31;;;17.15;80.60
61961;BME280;47923;42.506;24.192;2023-09-18T01:46:54;95875.19;;;16.23;80.17
61961;BME280;47923;42.506;24.192;2023-09-18T01:49:29;95759.66;;;15.47;80.09
61961;BME280;47923;42.506;24.192;2023-09-18T01:51:55;95891.19;;;16.35;80.28
61961;BME280;47923;42.506;24.192;2023-09-18T01:54:20;96100.53;;;17.57;80.64
61961;BME280;47923;42.506;24.192;2023-09-18T01:56:46;95872.06;;;16.21;80.25
61961;BME280;47923;42.506;24.192;2023-09-18T01:59:11;96074.38;;;17.56;80.19
61961;BME280;47923;42.506;24.192;2023-09-18T02:01:37;96077.09;;;17.60;79.85
61961;BME280;47923;42.506;24.192;2023-09-18T02:04:04;96077.91;;;17.64;79.42
61961;BME280;47923;42.506;24.192;2023-09-18T02:06:30;96077.13;;;17.67;79.17
61961;BME280;47923;42.506;24.192;2023-09-18T02:08:55;96025.59;;;17.33;79.25
61961;BME280;47923;42.506;24.192;2023-09-18T02:11:20;96077.50;;;17.69;79.56
61961;BME280;47923;42.506;24.192;2023-09-18T02:13:46;95897.09;;;16.48;79.28
61961;BME280;47923;42.506;24.192;2023-09-18T02:16:11;96038.06;;;17.34;79.61
61961;BME280;47923;42.506;24.192;2023-09-18T02:18:37;95922.84;;;16.65;79.29
61961;BME280;47923;42.506;24.192;2023-09-18T02:21:02;95945.91;;;16.78;79.63
61961;BME280;47923;42.506;24.192;2023-09-18T02:23:28;96002.50;;;17.06;80.40
61961;BME280;47923;42.506;24.192;2023-09-18T02:25:57;96070.06;;;17.45;81.11
61961;BME280;47923;42.506;24.192;2023-09-18T02:28:23;96078.63;;;17.39;81.74
61961;BME280;47923;42.506;24.192;2023-09-18T02:30:49;96050.91;;;17.23;81.67
61961;BME280;47923;42.506;24.192;2023-09-18T02:33:15;95962.97;;;16.64;81.20
61961;BME280;47923;42.506;24.192;2023-09-18T02:35:41;95922.03;;;16.46;80.67
61961;BME280;47923;42.506;24.192;2023-09-18T02:38:08;96076.31;;;17.49;80.71
61961;BME280;47923;42.506;24.192;2023-09-18T02:40:33;96010.31;;;17.07;81.01
61961;BME280;47923;42.506;24.192;2023-09-18T02:42:59;96077.09;;;17.53;80.45
61961;BME280;47923;42.506;24.192;2023-09-18T02:45:24;96073.59;;;17.59;79.63
61961;BME280;47923;42.506;24.192;2023-09-18T02:47:50;95970.50;;;16.96;78.54
61961;BME280;47923;42.506;24.192;2023-09-18T02:50:15;95865.00;;;16.06;78.48
61961;BME280;47923;42.506;24.192;2023-09-18T02:52:41;95661.03;;;14.92;78.75
61961;BME280;47923;42.506;24.192;2023-09-18T02:55:06;95949.81;;;16.77;78.52
61961;BME280;47923;42.506;24.192;2023-09-18T02:57:32;96079.84;;;17.67;78.22
61961;BME280;47923;42.506;24.192;2023-09-18T02:59:57;96079.06;;;17.66;78.43
61961;BME280;47923;42.506;24.192;2023-09-18T03:02:23;95936.91;;;16.74;78.47
61961;BME280;47923;42.506;24.192;2023-09-18T03:04:49;96081.00;;;17.69;78.62
61961;BME280;47923;42.506;24.192;2023-09-18T03:07:14;96027.13;;;17.38;77.79
61961;BME280;47923;42.506;24.192;2023-09-18T03:09:41;96077.50;;;17.69;78.32
61961;BME280;47923;42.506;24.192;2023-09-18T03:12:07;95973.66;;;17.05;77.39
61961;BME280;47923;42.506;24.192;2023-09-18T03:14:33;96026.38;;;17.45;77.81
61961;BME280;47923;42.506;24.192;2023-09-18T03:16:59;95918.19;;;16.69;77.81
61961;BME280;47923;42.506;24.192;2023-09-18T03:19:25;95857.69;;;16.27;78.82
61961;BME280;47923;42.506;24.192;2023-09-18T03:21:52;95917.41;;;16.68;78.83
61961;BME280;47923;42.506;24.192;2023-09-18T03:24:17;95924.88;;;16.75;79.00
61961;BME280;47923;42.506;24.192;2023-09-18T03:26:43;96073.63;;;17.70;79.88
61961;BME280;47923;42.506;24.192;2023-09-18T03:29:08;96022.47;;;17.35;79.46
61961;BME280;47923;42.506;24.192;2023-09-18T03:31:33;96067.00;;;17.71;79.53
61961;BME280;47923;42.506;24.192;2023-09-18T03:33:59;95655.19;;;14.90;80.85
61961;BME280;47923;42.506;24.192;2023-09-18T03:36:24;96084.53;;;17.66;79.38
61961;BME280;47923;42.506;24.192;2023-09-18T03:38:50;96084.53;;;17.66;80.41
61961;BME280;47923;42.506;24.192;2023-09-18T03:41:15;95915.81;;;16.53;81.46
61961;BME280;47923;42.506;24.192;2023-09-18T03:43:41;96077.88;;;17.46;82.00
61961;BME280;47923;42.506;24.192;2023-09-18T03:46:07;95968.91;;;16.77;82.30
61961;BME280;47923;42.506;24.192;2023-09-18T03:48:33;95597.31;;;14.31;82.16
61961;BME280;47923;42.506;24.192;2023-09-18T03:51:06;96048.16;;;17.16;83.75
61961;BME280;47923;42.506;24.192;2023-09-18T03:53:33;96065.34;;;17.24;84.29
61961;BME280;47923;42.506;24.192;2023-09-18T03:55:59;95921.53;;;16.19;85.09
61961;BME280;47923;42.506;24.192;2023-09-18T03:58:24;96066.47;;;17.12;85.15
61961;BME280;47923;42.506;24.192;2023-09-18T04:00:50;95687.63;;;14.61;84.65
61961;BME280;47923;42.506;24.192;2023-09-18T04:03:16;95794.97;;;15.33;85.17
61961;BME280;47923;42.506;24.192;2023-09-18T04:05:42;96075.41;;;17.02;86.00
61961;BME280;47923;42.506;24.192;2023-09-18T04:08:07;95996.03;;;16.52;86.33
61961;BME280;47923;42.506;24.192;2023-09-18T04:10:33;96075.00;;;17.03;85.67
61961;BME280;47923;42.506;24.192;2023-09-18T04:13:00;96068.00;;;17.09;85.27
61961;BME280;47923;42.506;24.192;2023-09-18T04:15:25;95923.47;;;16.22;85.08
61961;BME280;47923;42.506;24.192;2023-09-18T04:17:52;96039.53;;;17.03;84.54
61961;BME280;47923;42.506;24.192;2023-09-18T04:20:18;95884.84;;;16.06;83.73
61961;BME280;47923;42.506;24.192;2023-09-18T04:22:45;96050.47;;;17.10;83.80
61961;BME280;47923;42.506;24.192;2023-09-18T04:25:14;96062.59;;;17.24;84.36
61961;BME280;47923;42.506;24.192;2023-09-18T04:27:40;96038.78;;;17.13;84.47
61961;BME280;47923;42.506;24.192;2023-09-18T04:30:07;96061.47;;;17.35;83.81
61961;BME280;47923;42.506;24.192;2023-09-18T04:32:36;95986.09;;;16.92;82.89
61961;BME280;47923;42.506;24.192;2023-09-18T04:35:01;96067.34;;;17.52;82.60
61961;BME280;47923;42.506;24.192;2023-09-18T04:37:26;96016.16;;;17.17;82.35
61961;BME280;47923;42.506;24.192;2023-09-18T04:39:52;96075.91;;;17.54;81.90
61961;BME280;47923;42.506;24.192;2023-09-18T04:42:17;96071.22;;;17.40;81.37
61961;BME280;47923;42.506;24.192;2023-09-18T04:44:43;96076.69;;;17.54;81.56
61961;BME280;47923;42.506;24.192;2023-09-18T04:47:09;96086.09;;;17.64;80.68
61961;BME280;47923;42.506;24.192;2023-09-18T04:49:35;95737.47;;;15.49;80.43
61961;BME280;47923;42.506;24.192;2023-09-18T04:52:00;95944.72;;;16.72;80.84
61961;BME280;47923;42.506;24.192;2023-09-18T04:54:25;96074.03;;;17.86;80.85
61961;BME280;47923;42.506;24.192;2023-09-18T04:56:51;96003.75;;;17.51;80.00
61961;BME280;47923;42.506;24.192;2023-09-18T04:59:16;96081.06;;;18.05;80.25
61961;BME280;47923;42.506;24.192;2023-09-18T05:01:42;96056.47;;;18.02;79.72
61961;BME280;47923;42.506;24.192;2023-09-18T05:04:07;96081.06;;;18.23;80.12
61961;BME280;47923;42.506;24.192;2023-09-18T05:06:33;96048.25;;;18.16;77.90
61961;BME280;47923;42.506;24.192;2023-09-18T05:08:59;96043.56;;;18.23;78.21
61961;BME280;47923;42.506;24.192;2023-09-18T05:11:24;96065.75;;;18.54;78.08
61961;BME280;47923;42.506;24.192;2023-09-18T05:13:50;95917.88;;;17.63;77.74
61961;BME280;47923;42.506;24.192;2023-09-18T05:16:16;96011.91;;;18.26;77.50
61961;BME280;47923;42.506;24.192;2023-09-18T05:18:42;96063.38;;;18.77;77.32
61961;BME280;47923;42.506;24.192;2023-09-18T05:21:09;95837.06;;;19.16;69.98
61961;BME280;47923;42.506;24.192;2023-09-18T05:23:35;96055.81;;;23.54;58.42
61961;BME280;47923;42.506;24.192;2023-09-18T05:26:01;96023.97;;;24.64;51.70
61961;BME280;47923;42.506;24.192;2023-09-18T05:28:26;96056.06;;;25.57;48.44
61961;BME280;47923;42.506;24.192;2023-09-18T05:30:51;95960.78;;;25.46;47.64
61961;BME280;47923;42.506;24.192;2023-09-18T05:33:18;95876.03;;;25.39;45.31
61961;BME280;47923;42.506;24.192;2023-09-18T05:35:44;95859.56;;;24.30;47.22
61961;BME280;47923;42.506;24.192;2023-09-18T05:38:13;95904.56;;;23.20;50.68
61961;BME280;47923;42.506;24.192;2023-09-18T05:40:39;95955.09;;;22.77;54.47
61961;BME280;47923;42.506;24.192;2023-09-18T05:43:05;96069.03;;;22.44;55.13
61961;BME280;47923;42.506;24.192;2023-09-18T05:45:31;96064.09;;;21.58;58.47
61961;BME280;47923;42.506;24.192;2023-09-18T05:47:58;96076.25;;;21.30;60.56
61961;BME280;47923;42.506;24.192;2023-09-18T05:50:29;96065.31;;;21.22;61.77
61961;BME280;47923;42.506;24.192;2023-09-18T05:52:55;95808.22;;;19.49;62.35
61961;BME280;47923;42.506;24.192;2023-09-18T05:55:25;96004.53;;;20.59;63.26
61961;BME280;47923;42.506;24.192;2023-09-18T05:57:50;95912.50;;;20.13;63.23
61961;BME280;47923;42.506;24.192;2023-09-18T06:00:16;96081.41;;;21.24;62.87
61961;BME280;47923;42.506;24.192;2023-09-18T06:02:43;96074.09;;;21.44;61.23
61961;BME280;47923;42.506;24.192;2023-09-18T06:05:12;96043.06;;;21.44;59.21
61961;BME280;47923;42.506;24.192;2023-09-18T06:07:38;96072.91;;;21.72;58.29
61961;BME280;47923;42.506;24.192;2023-09-18T06:10:04;96010.63;;;21.62;57.07
61961;BME280;47923;42.506;24.192;2023-09-18T06:12:29;96079.91;;;23.50;53.20
61961;BME280;47923;42.506;24.192;2023-09-18T06:14:55;96083.06;;;24.83;48.92
61961;BME280;47923;42.506;24.192;2023-09-18T06:17:21;96069.84;;;26.34;44.35
61961;BME280;47923;42.506;24.192;2023-09-18T06:19:46;96076.72;;;26.77;42.26
61961;BME280;47923;42.506;24.192;2023-09-18T06:22:12;96090.59;;;26.04;42.86
61961;BME280;47923;42.506;24.192;2023-09-18T06:24:38;96089.50;;;25.21;44.33
61961;BME280;47923;42.506;24.192;2023-09-18T06:27:04;96020.84;;;24.00;47.21
61961;BME280;47923;42.506;24.192;2023-09-18T06:29:30;95953.78;;;23.54;47.50
61961;BME280;47923;42.506;24.192;2023-09-18T06:31:56;96044.53;;;23.65;48.34
61961;BME280;47923;42.506;24.192;2023-09-18T06:34:21;95888.59;;;22.59;49.00
61961;BME280;47923;42.506;24.192;2023-09-18T06:36:47;95983.75;;;22.60;50.54
61961;BME280;47923;42.506;24.192;2023-09-18T06:39:12;96091.94;;;22.80;49.98
61961;BME280;47923;42.506;24.192;2023-09-18T06:41:38;96039.41;;;22.28;51.79
61961;BME280;47923;42.506;24.192;2023-09-18T06:44:03;96056.06;;;21.94;51.59
61961;BME280;47923;42.506;24.192;2023-09-18T06:46:29;96093.16;;;22.13;53.80
61961;BME280;47923;42.506;24.192;2023-09-18T06:48:55;96073.00;;;22.19;53.41
61961;BME280;47923;42.506;24.192;2023-09-18T06:51:22;95670.41;;;19.82;53.78
61961;BME280;47923;42.506;24.192;2023-09-18T06:53:47;95863.97;;;21.22;53.70
61961;BME280;47923;42.506;24.192;2023-09-18T06:56:13;96090.66;;;22.65;52.81
61961;BME280;47923;42.506;24.192;2023-09-18T06:58:38;96005.78;;;21.93;54.12
61961;BME280;47923;42.506;24.192;2023-09-18T07:01:04;95905.38;;;21.11;54.58
61961;BME280;47923;42.506;24.192;2023-09-18T07:03:35;96027.56;;;22.07;54.13
61961;BME280;47923;42.506;24.192;2023-09-18T07:06:02;96103.88;;;22.74;53.18
61961;BME280;47923;42.506;24.192;2023-09-18T07:08:27;96085.91;;;23.65;51.32
61961;BME280;47923;42.506;24.192;2023-09-18T07:10:53;96079.56;;;25.24;46.83
61961;BME280;47923;42.506;24.192;2023-09-18T07:13:18;96058.00;;;26.33;42.61
61961;BME280;47923;42.506;24.192;2023-09-18T07:15:44;96087.69;;;27.68;40.09
61961;BME280;47923;42.506;24.192;2023-09-18T07:18:10;96086.84;;;27.89;39.49
61961;BME280;47923;42.506;24.192;2023-09-18T07:20:40;96082.84;;;27.90;39.30
61961;BME280;47923;42.506;24.192;2023-09-18T07:23:05;95919.41;;;26.37;39.90
61961;BME280;47923;42.506;24.192;2023-09-18T07:25:31;96089.81;;;27.64;39.40
61961;BME280;47923;42.506;24.192;2023-09-18T07:27:56;96076.56;;;27.99;39.66
61961;BME280;47923;42.506;24.192;2023-09-18T07:30:21;96091.44;;;29.18;35.76
61961;BME280;47923;42.506;24.192;2023-09-18T07:32:47;96077.25;;;30.67;34.79
61961;BME280;47923;42.506;24.192;2023-09-18T07:35:12;96067.63;;;33.33;30.43
61961;BME280;47923;42.506;24.192;2023-09-18T07:37:41;96054.44;;;34.82;27.81
61961;BME280;47923;42.506;24.192;2023-09-18T07:40:09;96052.63;;;36.00;25.20
61961;BME280;47923;42.506;24.192;2023-09-18T07:42:35;96064.84;;;36.31;24.66
61961;BME280;47923;42.506;24.192;2023-09-18T07:45:00;96070.78;;;35.93;25.51
61961;BME280;47923;42.506;24.192;2023-09-18T07:47:26;96066.59;;;33.56;27.53
61961;BME280;47923;42.506;24.192;2023-09-18T07:49:51;96000.44;;;32.60;29.21
61961;BME280;47923;42.506;24.192;2023-09-18T07:52:19;95986.41;;;33.90;28.18
61961;BME280;47923;42.506;24.192;2023-09-18T07:54:45;95929.44;;;33.04;27.32
61961;BME280;47923;42.506;24.192;2023-09-18T07:57:10;96074.84;;;31.82;30.26
61961;BME280;47923;42.506;24.192;2023-09-18T07:59:36;95598.53;;;27.31;32.87
61961;BME280;47923;42.506;24.192;2023-09-18T08:02:02;96068.19;;;30.96;32.46
61961;BME280;47923;42.506;24.192;2023-09-18T08:04:31;95803.53;;;29.14;32.34
61961;BME280;47923;42.506;24.192;2023-09-18T08:06:56;96069.31;;;30.75;32.57
61961;BME280;47923;42.506;24.192;2023-09-18T08:09:22;96065.19;;;31.83;31.25
61961;BME280;47923;42.506;24.192;2023-09-18T08:11:48;96063.34;;;31.50;31.22
61961;BME280;47923;42.506;24.192;2023-09-18T08:14:15;96072.34;;;32.19;30.15
61961;BME280;47923;42.506;24.192;2023-09-18T08:16:41;96064.84;;;33.07;29.16
61961;BME280;47923;42.506;24.192;2023-09-18T08:19:06;96051.44;;;33.16;28.90
61961;BME280;47923;42.506;24.192;2023-09-18T08:21:32;95818.63;;;31.27;30.10
61961;BME280;47923;42.506;24.192;2023-09-18T08:23:58;96062.38;;;33.98;28.92
61961;BME280;47923;42.506;24.192;2023-09-18T08:26:24;96051.94;;;34.95;27.32
61961;BME280;47923;42.506;24.192;2023-09-18T08:28:50;95822.41;;;32.52;28.06
61961;BME280;47923;42.506;24.192;2023-09-18T08:31:16;96050.72;;;34.05;27.49
61961;BME280;47923;42.506;24.192;2023-09-18T08:33:42;95936.75;;;33.91;27.94
61961;BME280;47923;42.506;24.192;2023-09-18T08:36:08;96051.06;;;34.61;27.49
61961;BME280;47923;42.506;24.192;2023-09-18T08:38:34;95960.56;;;33.75;27.06
61961;BME280;47923;42.506;24.192;2023-09-18T08:40:59;96041.75;;;33.95;27.24
61961;BME280;47923;42.506;24.192;2023-09-18T08:43:26;95987.41;;;35.01;26.62
61961;BME280;47923;42.506;24.192;2023-09-18T08:45:53;96042.72;;;34.83;26.79
61961;BME280;47923;42.506;24.192;2023-09-18T08:48:20;96035.75;;;35.66;25.99
61961;BME280;47923;42.506;24.192;2023-09-18T08:50:47;96037.25;;;35.45;25.82
61961;BME280;47923;42.506;24.192;2023-09-18T08:53:12;96036.25;;;33.23;27.94
61961;BME280;47923;42.506;24.192;2023-09-18T08:55:38;95949.09;;;31.47;30.14
61961;BME280;47923;42.506;24.192;2023-09-18T08:58:06;96039.31;;;31.53;30.94
61961;BME280;47923;42.506;24.192;2023-09-18T09:00:31;96039.56;;;31.11;31.73
61961;BME280;47923;42.506;24.192;2023-09-18T09:02:57;95941.75;;;29.98;32.05
61961;BME280;47923;42.506;24.192;2023-09-18T09:05:23;96015.34;;;30.15;32.84
61961;BME280;47923;42.506;24.192;2023-09-18T09:07:49;96040.06;;;29.89;34.07
61961;BME280;47923;42.506;24.192;2023-09-18T09:10:15;96037.31;;;29.29;34.57
61961;BME280;47923;42.506;24.192;2023-09-18T09:12:57;96034.25;;;28.72;35.34
61961;BME280;47923;42.506;24.192;2023-09-18T09:15:28;96030.94;;;29.47;35.58
61961;BME280;47923;42.506;24.192;2023-09-18T09:18:07;95817.38;;;28.20;34.31
61961;BME280;47923;42.506;24.192;2023-09-18T09:20:33;95874.69;;;28.97;34.24
61961;BME280;47923;42.506;24.192;2023-09-18T09:23:03;95921.53;;;29.88;32.72
61961;BME280;47923;42.506;24.192;2023-09-18T09:25:31;96010.72;;;31.28;31.68
61961;BME280;47923;42.506;24.192;2023-09-18T09:27:57;95933.16;;;30.73;31.52
61961;BME280;47923;42.506;24.192;2023-09-18T09:30:25;95912.56;;;30.86;30.89
61961;BME280;47923;42.506;24.192;2023-09-18T09:32:52;95887.06;;;29.62;32.48
61961;BME280;47923;42.506;24.192;2023-09-18T09:35:31;95853.75;;;29.53;32.83
61961;BME280;47923;42.506;24.192;2023-09-18T09:38:09;96023.00;;;30.92;32.34
61961;BME280;47923;42.506;24.192;2023-09-18T09:40:35;96020.34;;;32.27;31.56
61961;BME280;47923;42.506;24.192;2023-09-18T09:43:03;96012.38;;;32.81;29.20
61961;BME280;47923;42.506;24.192;2023-09-18T09:45:30;96009.81;;;34.24;27.51
61961;BME280;47923;42.506;24.192;2023-09-18T09:48:05;95987.91;;;34.99;26.37
61961;BME280;47923;42.506;24.192;2023-09-18T09:50:32;96006.56;;;34.97;25.79
61961;BME280;47923;42.506;24.192;2023-09-18T09:52:58;96002.66;;;34.23;27.17
61961;BME280;47923;42.506;24.192;2023-09-18T09:57:55;96007.13;;;32.07;29.57
61961;BME280;47923;42.506;24.192;2023-09-18T10:00:24;95979.00;;;30.34;31.90
61961;BME280;47923;42.506;24.192;2023-09-18T10:03:03;95969.34;;;30.20;31.85
61961;BME280;47923;42.506;24.192;2023-09-18T10:05:32;95999.28;;;30.34;32.15
61961;BME280;47923;42.506;24.192;2023-09-18T10:08:02;95997.22;;;29.87;32.59
61961;BME280;47923;42.506;24.192;2023-09-18T10:10:33;95954.53;;;29.48;32.97
61961;BME280;47923;42.506;24.192;2023-09-18T10:13:04;96001.19;;;29.10;33.34
61961;BME280;47923;42.506;24.192;2023-09-18T10:15:33;96001.13;;;29.29;33.13
61961;BME280;47923;42.506;24.192;2023-09-18T10:18:05;96006.59;;;28.77;33.53
61961;BME280;47923;42.506;24.192;2023-09-18T10:20:37;95805.94;;;28.27;33.00
61961;BME280;47923;42.506;24.192;2023-09-18T10:23:18;95933.81;;;30.06;31.38
61961;BME280;47923;42.506;24.192;2023-09-18T10:25:51;95999.34;;;29.59;32.75
61961;BME280;47923;42.506;24.192;2023-09-18T10:28:20;95780.03;;;28.40;31.97
61961;BME280;47923;42.506;24.192;2023-09-18T10:30:47;95943.56;;;29.11;32.80
61961;BME280;47923;42.506;24.192;2023-09-18T10:33:13;95810.38;;;28.61;32.22
61961;BME280;47923;42.506;24.192;2023-09-18T10:35:39;95988.78;;;29.21;32.99
61961;BME280;47923;42.506;24.192;2023-09-18T10:38:05;95987.88;;;29.14;33.20
61961;BME280;47923;42.506;24.192;2023-09-18T10:40:32;95878.91;;;29.82;32.04
61961;BME280;47923;42.506;24.192;2023-09-18T10:43:02;95987.91;;;31.00;30.38
61961;BME280;47923;42.506;24.192;2023-09-18T10:45:28;95983.41;;;30.40;31.20
61961;BME280;47923;42.506;24.192;2023-09-18T10:47:54;95876.91;;;28.65;32.76
61961;BME280;47923;42.506;24.192;2023-09-18T10:50:25;95985.91;;;29.90;32.65
61961;BME280;47923;42.506;24.192;2023-09-18T10:52:51;95918.53;;;29.53;31.60
61961;BME280;47923;42.506;24.192;2023-09-18T10:55:16;95986.34;;;29.13;32.03
61961;BME280;47923;42.506;24.192;2023-09-18T10:57:53;95972.81;;;29.39;33.46
61961;BME280;47923;42.506;24.192;2023-09-18T11:00:21;95976.63;;;29.00;33.26
61961;BME280;47923;42.506;24.192;2023-09-18T11:02:54;95802.44;;;27.63;33.79
61961;BME280;47923;42.506;24.192;2023-09-18T11:05:31;95969.53;;;28.16;34.94
61961;BME280;47923;42.506;24.192;2023-09-18T11:11:07;95907.75;;;26.95;35.99
61961;BME280;47923;42.506;24.192;2023-09-18T11:13:45;95974.63;;;26.97;37.28
61961;BME280;47923;42.506;24.192;2023-09-18T11:21:27;95762.06;;;25.10;37.89
61961;BME280;47923;42.506;24.192;2023-09-18T11:24:00;95971.06;;;26.18;37.96
61961;BME280;47923;42.506;24.192;2023-09-18T11:26:33;95935.41;;;26.20;37.61
61961;BME280;47923;42.506;24.192;2023-09-18T11:28:59;95968.69;;;26.86;37.49
61961;BME280;47923;42.506;24.192;2023-09-18T11:31:49;95946.97;;;26.84;37.18
61961;BME280;47923;42.506;24.192;2023-09-18T11:34:30;95970.31;;;26.96;36.62
61961;BME280;47923;42.506;24.192;2023-09-18T11:37:01;95965.78;;;26.89;36.93
61961;BME280;47923;42.506;24.192;2023-09-18T11:39:55;95922.59;;;26.79;36.53
61961;BME280;47923;42.506;24.192;2023-09-18T11:42:21;95951.97;;;27.20;36.22
61961;BME280;47923;42.506;24.192;2023-09-18T11:44:54;95959.78;;;27.13;36.51
61961;BME280;47923;42.506;24.192;2023-09-18T11:47:24;95783.25;;;26.16;36.47
61961;BME280;47923;42.506;24.192;2023-09-18T11:49:59;95907.72;;;27.17;35.83
61961;BME280;47923;42.506;24.192;2023-09-18T11:52:29;95875.22;;;26.55;36.45
61961;BME280;47923;42.506;24.192;2023-09-18T11:54:57;95802.75;;;25.91;37.50
61961;BME280;47923;42.506;24.192;2023-09-18T11:57:23;95657.97;;;25.28;36.89
61961;BME280;47923;42.506;24.192;2023-09-18T11:59:50;95821.31;;;26.47;36.15
61961;BME280;47923;42.506;24.192;2023-09-18T12:02:29;95941.94;;;27.23;36.09
61961;BME280;47923;42.506;24.192;2023-09-18T12:05:17;95934.78;;;27.35;35.97
61961;BME280;47923;42.506;24.192;2023-09-18T12:07:45;95930.31;;;27.37;35.85
61961;BME280;47923;42.506;24.192;2023-09-18T12:10:15;95844.56;;;27.12;35.98
61961;BME280;47923;42.506;24.192;2023-09-18T12:12:42;95841.56;;;26.97;36.09
61961;BME280;47923;42.506;24.192;2023-09-18T12:15:12;95907.81;;;27.35;35.85
61961;BME280;47923;42.506;24.192;2023-09-18T12:17:38;95912.03;;;27.58;36.33
61961;BME280;47923;42.506;24.192;2023-09-18T12:20:03;95801.88;;;26.69;36.24
61961;BME280;47923;42.506;24.192;2023-09-18T12:22:31;95726.53;;;25.55;36.83
61961;BME280;47923;42.506;24.192;2023-09-18T12:25:15;95765.59;;;25.23;38.00
61961;BME280;47923;42.506;24.192;2023-09-18T12:27:41;95901.31;;;26.45;37.97
61961;BME280;47923;42.506;24.192;2023-09-18T12:30:07;95899.75;;;26.44;37.49
61961;BME280;47923;42.506;24.192;2023-09-18T12:32:37;95903.72;;;26.21;37.64
61961;BME280;47923;42.506;24.192;2023-09-18T12:35:05;95904.94;;;26.20;38.00
61961;BME280;47923;42.506;24.192;2023-09-18T12:37:39;95906.22;;;26.28;38.36
61961;BME280;47923;42.506;24.192;2023-09-18T12:40:22;95808.91;;;25.39;38.49
61961;BME280;47923;42.506;24.192;2023-09-18T12:42:47;95899.72;;;26.00;38.44
61961;BME280;47923;42.506;24.192;2023-09-18T12:45:13;95895.59;;;26.27;38.05
61961;BME280;47923;42.506;24.192;2023-09-18T12:47:40;95784.22;;;25.44;37.57
61961;BME280;47923;42.506;24.192;2023-09-18T12:50:06;95838.94;;;25.97;37.70
61961;BME280;47923;42.506;24.192;2023-09-18T12:52:36;95893.81;;;26.33;37.81
61961;BME280;47923;42.506;24.192;2023-09-18T12:55:02;95886.22;;;26.24;38.45
61961;BME280;47923;42.506;24.192;2023-09-18T12:57:31;95888.59;;;26.35;37.87
61961;BME280;47923;42.506;24.192;2023-09-18T12:59:57;95806.25;;;25.70;37.28
61961;BME280;47923;42.506;24.192;2023-09-18T13:02:23;95890.13;;;26.14;37.33
61961;BME280;47923;42.506;24.192;2023-09-18T13:04:55;95888.84;;;26.28;37.06
61961;BME280;47923;42.506;24.192;2023-09-18T13:07:22;95831.88;;;26.39;37.21